Time;durP1;ratioP1;P1;durP2;ratioP2;P2;SDS_P1;SDS_P2;PMS_P1;PMS_P2;Temp;Humidity;BMP_temperature;BMP_pressure;BME280_temperature;BME280_humidity;BME280_pressure;Samples;Min_cycle;Max_cycle;Signal;HPM_P1;HPM_P2
2022/01/16 00:01:34;;;;;;;14.43;4.78;;;;;;;5.14;50.25;98998.75;4487119;32;20096;-80
2022/01/16 00:04:09;;;;;;;12.82;5.05;;;;;;;5.28;50.01;99014.03;4487546;32;20131;-80
2022/01/16 00:06:39;;;;;;;16.12;4.37;;;;;;;5.72;48.64;99008.59;4487455;32;20115;-80
2022/01/16 00:09:06;;;;;;;12.43;4.37;;;;;;;4.95;50.08;98986.94;4486787;32;20069;-81
2022/01/16 00:11:33;;;;;;;14.05;4.87;;;;;;;5.39;49.48;98978.13;4473111;32;20115;-80
2022/01/16 00:14:00;;;;;;;15.00;5.00;;;;;;;4.56;51.21;98987.94;4473154;32;20182;-80
2022/01/16 00:16:27;;;;;;;14.80;4.78;;;;;;;5.09;49.35;98979.16;4486994;32;20096;-80
2022/01/16 00:18:54;;;;;;;14.87;5.53;;;;;;;3.44;53.17;98984.72;4487133;32;20076;-80
2022/01/16 00:21:33;;;;;;;14.18;4.87;;;;;;;3.21;55.47;98982.16;4473199;32;20116;-80
2022/01/16 00:24:00;;;;;;;12.18;4.68;;;;;;;3.65;53.70;99035.78;4472984;32;20485;-80
2022/01/16 00:26:27;;;;;;;16.02;4.80;;;;;;;4.57;50.58;99010.09;4487189;32;20178;-80
2022/01/16 00:28:54;;;;;;;16.02;4.70;;;;;;;4.62;49.57;98973.44;4486749;32;20538;-81
2022/01/16 00:31:23;;;;;;;19.20;4.53;;;;;;;4.45;50.45;98967.53;4486975;32;20504;-80
2022/01/16 00:33:51;;;;;;;14.32;4.15;;;;;;;3.96;51.42;99003.44;4472655;32;20100;-80
2022/01/16 00:36:19;;;;;;;11.45;4.87;;;;;;;3.67;51.62;99006.00;4486651;32;20092;-80
2022/01/16 00:38:47;;;;;;;15.15;4.53;;;;;;;4.11;51.22;98999.16;4486900;32;20095;-80
2022/01/16 00:41:17;;;;;;;14.13;4.22;;;;;;;4.38;50.70;99011.03;4460081;32;20582;-80
2022/01/16 00:43:45;;;;;;;13.57;5.15;;;;;;;5.47;47.63;98964.41;4485432;32;20160;-80
2022/01/16 00:46:12;;;;;;;15.45;4.50;;;;;;;4.09;51.02;98973.63;4472834;32;20446;-80
2022/01/16 00:48:39;;;;;;;11.27;3.90;;;;;;;3.42;53.35;98987.28;4486814;32;20105;-80
2022/01/16 00:51:06;;;;;;;14.75;4.65;;;;;;;3.83;52.74;98975.34;4486510;32;20115;-80
2022/01/16 00:53:33;;;;;;;12.68;4.22;;;;;;;4.06;52.93;98994.91;4472678;32;20164;-80
2022/01/16 00:56:00;;;;;;;13.07;4.70;;;;;;;4.08;52.81;99002.56;4472840;32;20166;-79
2022/01/16 00:58:27;;;;;;;13.15;4.75;;;;;;;4.40;52.64;98968.44;4486251;32;20481;-80
2022/01/16 01:00:54;;;;;;;16.20;4.97;;;;;;;4.61;51.51;98960.69;4486757;32;20188;-80
2022/01/16 01:03:21;;;;;;;15.48;4.55;;;;;;;3.82;53.67;98981.31;4486809;32;20100;-79
2022/01/16 01:05:49;;;;;;;13.70;4.68;;;;;;;3.82;54.05;98984.72;4472251;32;20178;-80
2022/01/16 01:08:17;;;;;;;13.68;4.57;;;;;;;4.47;52.35;99021.22;4486555;32;20076;-80
2022/01/16 01:10:47;;;;;;;16.30;4.70;;;;;;;4.56;51.63;99004.13;4486386;32;20168;-80
2022/01/16 01:13:32;;;;;;;18.73;4.80;;;;;;;4.87;50.14;99006.56;4486517;32;20135;-80
2022/01/16 01:16:04;;;;;;;19.58;5.95;;;;;;;4.62;50.83;98981.13;4486607;32;20127;-80
2022/01/16 01:18:33;;;;;;;21.40;5.72;;;;;;;4.37;51.29;98884.97;4486030;32;20685;-80
2022/01/16 01:21:02;;;;;;;13.80;4.62;;;;;;;4.57;50.90;98935.97;4472336;32;20123;-80
2022/01/16 01:23:30;;;;;;;15.55;5.10;;;;;;;5.63;48.20;98942.09;4486370;32;20374;-80
2022/01/16 01:25:58;;;;;;;14.30;5.70;;;;;;;5.75;47.81;98936.03;4471937;32;20110;-79
2022/01/16 01:28:25;;;;;;;15.93;6.20;;;;;;;5.22;48.25;98924.53;4486205;32;20494;-79
2022/01/16 01:30:52;;;;;;;14.07;5.30;;;;;;;5.12;48.87;98956.16;4486254;32;20116;-80
2022/01/16 01:33:20;;;;;;;17.37;5.57;;;;;;;4.78;50.43;98964.00;4471505;32;20115;-80
2022/01/16 01:35:47;;;;;;;15.13;5.37;;;;;;;4.88;49.90;98983.53;4486102;32;20103;-79
2022/01/16 01:38:19;;;;;;;15.85;5.07;;;;;;;3.58;53.62;98993.22;4486095;32;20092;-80
2022/01/16 01:40:48;;;;;;;16.42;5.68;;;;;;;4.47;51.55;98988.84;4485842;32;20721;-80
2022/01/16 01:51:23;;;;;;;16.08;5.40;;;;;;;3.89;53.75;98960.03;4474074;32;20120;-79
2022/01/16 01:53:51;;;;;;;17.90;5.15;;;;;;;4.57;51.30;98952.19;4471727;32;20101;-80
2022/01/16 01:56:21;;;;;;;14.73;5.60;;;;;;;4.21;52.02;98971.03;4474273;32;20408;-80
2022/01/16 01:58:49;;;;;;;14.13;5.15;;;;;;;3.06;54.91;98970.22;4488030;32;20443;-80
2022/01/16 02:01:17;;;;;;;16.20;5.57;;;;;;;4.11;52.13;98971.91;4473759;32;20112;-80
2022/01/16 02:03:45;;;;;;;20.45;6.32;;;;;;;4.46;51.24;98981.16;4488272;32;20435;-80
2022/01/16 02:06:18;;;;;;;20.00;7.28;;;;;;;4.38;51.84;98973.56;4488383;32;20123;-80
2022/01/16 02:08:53;;;;;;;24.73;9.77;;;;;;;4.64;51.04;98976.00;4487906;32;20097;-80
2022/01/16 02:11:27;;;;;;;30.12;11.00;;;;;;;4.08;52.83;98971.91;4488191;32;20161;-80
2022/01/16 02:14:01;;;;;;;37.47;13.43;;;;;;;5.11;48.77;98964.69;4488245;32;20087;-80
2022/01/16 02:28:12;;;;;;;36.25;13.32;;;;;;;4.92;47.06;98958.81;4487824;32;20486;-80
2022/01/16 02:35:53;;;;;;;36.33;13.50;;;;;;;3.53;50.27;98971.97;4487734;32;20152;-80
2022/01/16 02:38:21;;;;;;;41.95;16.00;;;;;;;5.22;46.17;98963.75;4488061;32;20162;-80
2022/01/16 02:40:51;;;;;;;38.47;14.82;;;;;;;4.48;48.42;98964.16;4487864;32;20590;-80
2022/01/16 02:43:28;;;;;;;61.85;22.37;;;;;;;4.27;49.11;98960.81;4473588;32;20168;-80
2022/01/16 02:46:35;;;;;;;33.10;11.20;;;;;;;4.09;49.57;98971.06;4488069;32;20088;-80
2022/01/16 02:48:48;;;;;;;23.33;7.87;;;;;;;4.52;48.43;98968.38;4487688;32;20108;-80
2022/01/16 02:51:17;;;;;;;36.33;13.10;;;;;;;5.62;46.16;98972.81;4473778;32;20156;-80
2022/01/16 02:53:45;;;;;;;47.42;17.95;;;;;;;4.58;48.40;98959.00;4473782;32;20502;-80
2022/01/16 02:56:13;;;;;;;36.80;14.80;;;;;;;4.53;48.61;98962.41;4473632;32;20499;-80
2022/01/16 02:58:41;;;;;;;39.88;13.77;;;;;;;4.65;48.11;98962.34;4487785;32;20571;-80
2022/01/16 03:01:08;;;;;;;45.03;17.35;;;;;;;4.82;47.90;98950.34;4487770;32;20106;-80
2022/01/16 03:03:36;;;;;;;70.00;27.33;;;;;;;5.29;46.12;98944.06;4487524;32;20091;-80
2022/01/16 03:06:03;;;;;;;77.12;29.67;;;;;;;4.96;46.74;98941.75;4486969;32;20108;-80
2022/01/16 03:08:30;;;;;;;54.60;20.62;;;;;;;4.47;47.61;98931.78;4473640;32;20605;-80
2022/01/16 03:11:15;;;;;;;45.10;18.25;;;;;;;4.77;47.17;98934.16;4487502;32;20483;-80
2022/01/16 03:13:46;;;;;;;38.25;16.10;;;;;;;4.78;47.18;98940.97;4487754;32;20505;-80
2022/01/16 03:16:17;;;;;;;31.02;11.50;;;;;;;4.85;47.26;98936.69;4474181;32;20160;-79
2022/01/16 03:24:16;;;;;;;17.85;6.57;;;;;;;4.32;48.29;98928.41;4487548;32;20104;-81
2022/01/16 03:26:43;;;;;;;17.00;6.20;;;;;;;4.28;48.34;98920.78;4487784;32;20148;-80
2022/01/16 03:29:10;;;;;;;16.08;5.62;;;;;;;4.65;47.15;98918.91;4473760;32;20167;-80
2022/01/16 03:31:37;;;;;;;14.45;5.28;;;;;;;4.78;47.07;98915.41;4487624;32;20218;-79
2022/01/16 03:34:05;;;;;;;14.35;4.50;;;;;;;3.93;49.03;98910.66;4487479;32;20109;-79
2022/01/16 03:36:32;;;;;;;13.32;5.05;;;;;;;5.26;45.57;98907.44;4487781;32;20140;-79
2022/01/16 03:38:59;;;;;;;15.35;4.90;;;;;;;4.70;47.21;98914.62;4487117;32;20100;-80
2022/01/16 03:41:27;;;;;;;16.55;5.37;;;;;;;3.36;50.78;98912.44;4487528;32;20471;-80
2022/01/16 03:44:02;;;;;;;16.08;5.65;;;;;;;3.47;50.28;98913.28;4487485;32;20095;-80
2022/01/16 03:46:36;;;;;;;19.83;6.37;;;;;;;3.15;51.99;98903.06;4487270;32;20107;-80
2022/01/16 03:49:11;;;;;;;22.98;6.12;;;;;;;3.10;52.86;98908.19;4487427;32;20088;-80
2022/01/16 03:51:39;;;;;;;14.95;5.07;;;;;;;3.41;51.78;98903.94;4487551;32;20089;-80
2022/01/16 03:54:07;;;;;;;16.90;4.80;;;;;;;3.62;51.57;98907.34;4472916;32;20474;-80
2022/01/16 03:56:35;;;;;;;21.52;5.95;;;;;;;3.24;52.43;98909.88;4487590;32;20108;-80
2022/01/16 03:59:03;;;;;;;15.60;5.22;;;;;;;3.84;51.17;98897.94;4473257;32;20148;-80
2022/01/16 04:01:30;;;;;;;18.95;6.15;;;;;;;3.66;51.91;98906.47;4472966;32;20164;-80
2022/01/16 04:03:57;;;;;;;22.17;7.43;;;;;;;3.05;54.75;98904.78;4487468;32;20111;-79
2022/01/16 04:06:24;;;;;;;31.40;10.05;;;;;;;4.09;52.50;98909.78;4487036;32;20116;-80
2022/01/16 04:08:56;;;;;;;37.08;12.63;;;;;;;3.63;54.41;98909.88;4473301;32;20152;-79
2022/01/16 04:11:25;;;;;;;39.17;13.93;;;;;;;3.49;54.35;98897.13;4473440;32;20102;-79
2022/01/16 04:14:02;;;;;;;36.40;12.57;;;;;;;3.00;56.05;98906.47;4486894;32;20600;-80
2022/01/16 04:16:29;;;;;;;41.15;15.10;;;;;;;4.38;52.57;98903.72;4487386;32;20148;-79
2022/01/16 04:18:57;;;;;;;46.53;17.40;;;;;;;4.91;49.97;98903.44;4472821;32;20102;-79
2022/01/16 04:21:25;;;;;;;55.60;20.67;;;;;;;4.74;50.11;98895.84;4472654;32;20143;-80
2022/01/16 04:23:53;;;;;;;55.80;20.20;;;;;;;4.91;48.62;98891.50;4487321;32;20096;-80
2022/01/16 04:26:21;;;;;;;60.58;21.85;;;;;;;4.70;48.65;98906.97;4473011;32;20167;-79
2022/01/16 04:28:48;;;;;;;50.53;19.25;;;;;;;5.00;47.10;98902.50;4486689;32;20196;-80
2022/01/16 04:31:15;;;;;;;63.35;20.30;;;;;;;4.81;46.69;98896.66;4487083;32;20164;-80
2022/01/16 04:33:43;;;;;;;62.58;24.67;;;;;;;3.67;48.49;98896.25;4486583;32;20089;-79
2022/01/16 04:36:11;;;;;;;65.85;23.38;;;;;;;3.84;48.48;98895.37;4486657;32;20494;-80
2022/01/16 04:38:44;;;;;;;25.10;9.13;;;;;;;4.51;45.87;98907.91;4472842;32;20143;-79
2022/01/16 04:43:58;;;;;;;17.48;6.57;;;;;;;3.90;48.30;98896.19;4475161;32;20141;-79
2022/01/16 04:46:28;;;;;;;15.10;5.32;;;;;;;4.32;47.96;98889.25;4486978;32;20104;-79
2022/01/16 04:48:57;;;;;;;17.77;5.62;;;;;;;4.30;47.98;98893.53;4486555;32;20107;-80
2022/01/16 04:51:26;;;;;;;18.50;5.18;;;;;;;4.54;47.81;98895.09;4486855;32;20473;-79
2022/01/16 04:53:52;;;;;;;16.77;4.85;;;;;;;4.16;48.78;98892.72;4486713;32;20508;-80
2022/01/16 04:56:20;;;;;;;14.82;4.70;;;;;;;3.96;48.53;98897.91;4486384;32;20103;-80
2022/01/16 04:58:47;;;;;;;14.95;4.75;;;;;;;3.97;48.55;98897.88;4486651;32;20175;-80
2022/01/16 05:01:15;;;;;;;13.60;4.90;;;;;;;3.53;49.23;98895.44;4486622;32;20096;-80
2022/01/16 05:03:42;;;;;;;15.55;4.95;;;;;;;2.59;52.05;98898.75;4486323;32;20097;-79
2022/01/16 05:06:10;;;;;;;16.23;5.40;;;;;;;2.59;52.23;98896.19;4486575;32;20514;-79
2022/01/16 05:08:37;;;;;;;16.65;4.65;;;;;;;2.95;52.50;98897.97;4486441;32;20091;-79
2022/01/16 05:11:06;;;;;;;14.75;5.28;;;;;;;3.50;49.80;98885.22;4472140;32;20136;-80
2022/01/16 05:18:52;;;;;;;13.80;4.37;;;;;;;4.04;50.37;98881.72;4486479;32;20136;-80
2022/01/16 05:21:20;;;;;;;12.40;4.68;;;;;;;3.83;51.83;98886.00;4481030;32;171201;-79
2022/01/16 05:23:47;;;;;;;16.17;5.70;;;;;;;3.67;52.16;98875.84;4471944;32;20093;-80
2022/01/16 05:26:17;;;;;;;17.35;4.80;;;;;;;3.48;52.52;98872.44;4472302;32;20112;-80
2022/01/16 05:28:45;;;;;;;16.62;5.20;;;;;;;3.34;53.20;98873.34;4486245;32;20147;-80
2022/01/16 05:31:12;;;;;;;15.48;5.53;;;;;;;5.04;48.74;98874.34;4488047;32;20084;-80
2022/01/16 05:33:39;;;;;;;21.52;8.65;;;;;;;4.01;50.84;98883.41;4474279;32;20104;-80
2022/01/16 05:36:06;;;;;;;34.10;15.05;;;;;;;4.42;49.11;98882.38;4488733;32;20147;-80
2022/01/16 05:38:33;;;;;;;27.42;12.75;;;;;;;4.58;48.41;98871.25;4488093;32;20494;-80
2022/01/16 05:41:00;;;;;;;26.23;10.55;;;;;;;4.61;47.59;98872.06;4488280;32;20102;-80
2022/01/16 05:43:27;;;;;;;22.42;7.70;;;;;;;4.16;48.39;98885.06;4488476;32;20076;-80
2022/01/16 05:45:54;;;;;;;25.90;9.30;;;;;;;4.22;47.56;98882.47;4487985;32;20088;-80
2022/01/16 05:48:21;;;;;;;30.48;11.32;;;;;;;4.04;47.63;98889.38;4488437;32;20151;-80
2022/01/16 05:50:48;;;;;;;22.98;8.70;;;;;;;3.48;48.21;98885.22;4488304;32;20102;-80
2022/01/16 05:53:15;;;;;;;22.48;7.62;;;;;;;2.89;50.54;98891.16;4487876;32;20160;-80
2022/01/16 05:55:42;;;;;;;23.40;8.40;;;;;;;3.48;49.84;98890.31;4488311;32;20106;-80
2022/01/16 05:58:10;;;;;;;18.85;6.85;;;;;;;3.18;50.57;98896.28;4488167;32;20160;-80
2022/01/16 06:00:38;;;;;;;16.52;5.90;;;;;;;2.84;51.32;98905.59;4487823;32;20144;-80
2022/01/16 06:03:06;;;;;;;17.52;5.57;;;;;;;2.88;51.59;98904.75;4488374;32;20096;-80
2022/01/16 06:05:33;;;;;;;15.80;5.55;;;;;;;2.71;52.59;98895.37;4473908;32;20130;-80
2022/01/16 06:08:06;;;;;;;18.02;6.50;;;;;;;2.83;51.69;98895.41;4488183;32;20109;-80
2022/01/16 06:10:33;;;;;;;20.27;7.62;;;;;;;3.03;51.61;98896.28;4488058;32;20128;-80
2022/01/16 06:13:02;;;;;;;28.17;10.60;;;;;;;3.21;51.13;98884.41;4487832;32;20085;-80
2022/01/16 06:15:29;;;;;;;26.20;10.73;;;;;;;4.04;47.98;98873.16;4488170;32;20100;-80
2022/01/16 06:17:56;;;;;;;22.90;6.82;;;;;;;3.97;48.37;98881.72;4488218;32;20080;-80
2022/01/16 06:20:23;;;;;;;17.92;6.15;;;;;;;3.59;48.81;98894.56;4487758;32;20160;-80
2022/01/16 06:22:53;;;;;;;21.85;6.60;;;;;;;4.03;47.46;98894.44;4488177;32;20148;-80
2022/01/16 06:25:20;;;;;;;28.12;9.57;;;;;;;3.65;47.80;98897.97;4488190;32;20129;-80
2022/01/16 06:27:47;;;;;;;20.80;8.38;;;;;;;3.29;49.07;98893.72;4487661;32;20175;-80
2022/01/16 06:30:14;;;;;;;17.35;6.68;;;;;;;4.48;46.44;98901.09;4487927;32;20081;-80
2022/01/16 06:32:41;;;;;;;26.17;8.00;;;;;;;3.02;50.47;98906.47;4488122;32;20454;-80
2022/01/16 06:35:09;;;;;;;22.85;8.52;;;;;;;3.92;48.67;98904.69;4473443;32;20122;-80
2022/01/16 06:37:36;;;;;;;21.05;8.38;;;;;;;4.65;46.15;98906.97;4488078;32;20155;-79
2022/01/16 06:40:04;;;;;;;48.53;18.10;;;;;;;3.95;48.25;98911.53;4473315;32;20156;-79
2022/01/16 06:42:31;;;;;;;39.17;14.73;;;;;;;4.07;48.09;98908.94;4487088;32;20099;-80
2022/01/16 06:44:59;;;;;;;112.70;38.60;;;;;;;4.85;46.73;98911.97;4488072;32;20147;-80
2022/01/16 06:47:26;;;;;;;116.12;39.25;;;;;;;4.69;46.91;98904.41;4473917;32;20418;-80
2022/01/16 06:49:53;;;;;;;92.37;33.30;;;;;;;4.08;48.38;98908.06;4487434;32;20465;-80
2022/01/16 06:52:20;;;;;;;100.25;34.72;;;;;;;4.55;47.32;98900.19;4488030;32;20096;-80
2022/01/16 06:54:47;;;;;;;82.97;30.73;;;;;;;5.55;44.50;98902.94;4473446;32;20155;-80
2022/01/16 06:57:14;;;;;;;75.78;27.95;;;;;;;4.44;47.26;98888.34;4488086;32;20139;-79
2022/01/16 06:59:42;;;;;;;91.25;32.92;;;;;;;4.26;48.37;98887.59;4487685;32;20171;-79
2022/01/16 07:02:09;;;;;;;70.20;25.37;;;;;;;3.94;49.22;98886.84;4487697;32;20490;-80
2022/01/16 07:04:36;;;;;;;75.70;27.65;;;;;;;4.40;48.20;98889.22;4488056;32;20092;-80
2022/01/16 07:07:03;;;;;;;64.43;25.48;;;;;;;4.51;48.09;98890.88;4487869;32;20101;-80
2022/01/16 07:09:30;;;;;;;72.37;26.62;;;;;;;4.66;47.91;98892.47;4487567;32;20125;-80
2022/01/16 07:11:57;;;;;;;80.97;28.27;;;;;;;4.93;47.58;98886.34;4488121;32;20135;-80
2022/01/16 07:14:24;;;;;;;79.75;29.55;;;;;;;4.99;48.78;98893.13;4488164;32;20147;-79
2022/01/16 07:16:51;;;;;;;;;;;;;;;5.56;50.15;98904.63;4488230;32;20102;-79
2022/01/16 07:19:18;;;;;;;66.65;27.67;;;;;;;6.60;46.58;98912.06;4487584;32;20040;-79
2022/01/16 07:21:44;;;;;;;;;;;;;;;7.39;44.67;98907.47;4487897;32;20100;-79
2022/01/16 07:24:15;;;;;;;79.68;31.65;;;;;;;8.31;42.96;98898.94;4487423;32;19996;-80
2022/01/16 07:26:43;;;;;;;79.10;30.77;;;;;;;9.17;40.10;98912.56;4487718;32;20092;-80
2022/01/16 07:29:10;;;;;;;70.35;29.17;;;;;;;10.13;38.12;98907.53;4487360;32;20155;-80
2022/01/16 07:31:38;;;;;;;70.25;31.00;;;;;;;11.04;36.50;98895.44;4473229;32;20469;-80
2022/01/16 07:34:09;;;;;;;68.82;30.55;;;;;;;11.73;34.98;98887.16;4487155;32;20148;-80
2022/01/16 07:36:37;;;;;;;42.50;19.95;;;;;;;12.54;33.62;98893.78;4487546;32;20096;-80
2022/01/16 07:39:04;;;;;;;52.03;24.20;;;;;;;12.99;32.52;98905.00;4487199;32;20393;-80
2022/01/16 07:41:31;;;;;;;47.90;22.08;;;;;;;13.08;31.25;98898.63;4473420;32;20141;-80
2022/01/16 07:43:58;;;;;;;38.50;16.73;;;;;;;13.42;30.69;98899.91;4487295;32;20246;-81
2022/01/16 07:46:27;;;;;;;24.42;10.32;;;;;;;13.77;29.90;98899.28;4487484;32;20159;-80
2022/01/16 07:48:55;;;;;;;22.05;8.95;;;;;;;13.80;29.62;98904.31;4487404;32;20076;-80
2022/01/16 07:51:22;;;;;;;19.87;7.95;;;;;;;13.21;30.28;98910.22;4487023;32;20108;-81
2022/01/16 07:53:49;;;;;;;17.62;7.50;;;;;;;12.08;31.99;98900.62;4472817;32;20406;-80
2022/01/16 07:56:17;;;;;;;16.05;7.18;;;;;;;12.64;31.59;98901.16;4487565;32;20426;-80
2022/01/16 07:58:43;;;;;;;14.07;6.37;;;;;;;12.73;31.09;98898.22;4487010;32;20174;-80
2022/01/16 08:01:10;;;;;;;19.48;7.10;;;;;;;13.28;30.74;98905.63;4487269;32;20160;-80
2022/01/16 08:03:38;;;;;;;23.42;9.65;;;;;;;12.64;31.20;98902.91;4487415;32;20115;-80
2022/01/16 08:06:04;;;;;;;23.98;10.00;;;;;;;13.60;30.15;98899.12;4487101;32;20080;-80
2022/01/16 08:08:31;;;;;;;20.62;9.75;;;;;;;13.97;29.78;98892.41;4487138;32;20095;-80
2022/01/16 08:10:58;;;;;;;22.60;9.20;;;;;;;13.52;30.84;98891.69;4487234;32;20087;-80
2022/01/16 08:13:25;;;;;;;22.73;8.48;;;;;;;13.74;31.05;98894.22;4486877;32;20108;-80
2022/01/16 08:15:52;;;;;;;21.77;7.32;;;;;;;13.01;32.31;98892.81;4487304;32;20802;-80
2022/01/16 08:18:19;;;;;;;23.80;9.15;;;;;;;13.74;31.71;98890.78;4487358;32;20092;-80
2022/01/16 08:20:46;;;;;;;18.00;8.35;;;;;;;11.88;36.09;98883.22;4486906;32;20151;-80
2022/01/16 08:23:13;;;;;;;19.95;8.63;;;;;;;13.28;34.10;98885.72;4487518;32;20103;-80
2022/01/16 08:25:41;;;;;;;19.65;10.02;;;;;;;14.16;33.17;98873.37;4473193;32;20093;-80
2022/01/16 08:28:08;;;;;;;21.25;10.45;;;;;;;14.80;32.24;98884.38;4487087;32;20084;-80
2022/01/16 08:30:36;;;;;;;21.23;10.07;;;;;;;15.19;32.02;98882.47;4487220;32;20151;-80
2022/01/16 08:33:03;;;;;;;20.20;10.20;;;;;;;15.65;31.07;98874.22;4486905;32;20144;-80
2022/01/16 08:35:30;;;;;;;26.08;12.98;;;;;;;15.24;31.71;98870.12;4487082;32;20141;-80
2022/01/16 08:37:57;;;;;;;28.42;13.73;;;;;;;12.11;37.57;98859.13;4487214;32;20102;-80
2022/01/16 08:40:24;;;;;;;27.08;14.23;;;;;;;11.68;38.03;98854.59;4486775;32;20152;-80
2022/01/16 08:42:51;;;;;;;35.25;16.58;;;;;;;9.49;43.10;98866.25;4487190;32;20135;-80
2022/01/16 08:45:18;;;;;;;35.42;18.50;;;;;;;9.07;44.69;98864.72;4473081;32;20167;-80
2022/01/16 08:47:45;;;;;;;38.78;19.60;;;;;;;9.44;44.36;98860.38;4486937;32;20152;-80
2022/01/16 08:50:14;;;;;;;39.08;20.17;;;;;;;10.42;41.66;98868.91;4486898;32;20152;-79
2022/01/16 08:52:42;;;;;;;37.40;17.98;;;;;;;11.62;39.46;98855.66;4473227;32;20105;-80
2022/01/16 08:55:10;;;;;;;38.15;18.62;;;;;;;10.99;40.22;98855.13;4486919;32;20081;-80
2022/01/16 08:57:38;;;;;;;36.67;17.62;;;;;;;12.37;38.03;98856.44;4487053;32;20088;-80
2022/01/16 09:00:06;;;;;;;29.40;15.10;;;;;;;12.00;38.52;98854.34;4472655;32;20734;-80
2022/01/16 09:02:33;;;;;;;29.35;14.63;;;;;;;11.58;39.70;98857.47;4486843;32;20431;-80
2022/01/16 09:05:00;;;;;;;29.05;14.07;;;;;;;12.57;37.97;98857.44;4488141;32;20089;-80
2022/01/16 09:07:28;;;;;;;25.23;13.65;;;;;;;12.52;37.88;98856.75;4488917;32;20152;-80
2022/01/16 09:09:57;;;;;;;27.60;13.43;;;;;;;11.82;39.58;98850.69;4488410;32;20144;-80
2022/01/16 09:12:24;;;;;;;27.45;13.62;;;;;;;12.08;38.78;98854.91;4475035;32;20187;-80
2022/01/16 09:14:51;;;;;;;25.17;13.10;;;;;;;12.70;37.93;98850.91;4474606;32;20108;-80
2022/01/16 09:17:18;;;;;;;25.00;12.73;;;;;;;13.81;36.29;98863.66;4488559;32;20371;-80
2022/01/16 09:19:46;;;;;;;26.77;12.02;;;;;;;13.72;35.88;98862.34;4488578;32;20115;-80
2022/01/16 09:22:13;;;;;;;26.05;12.48;;;;;;;13.66;36.55;98864.31;4488424;32;20138;-80
2022/01/16 09:24:40;;;;;;;23.38;11.77;;;;;;;13.74;36.80;98867.44;4488665;32;20511;-80
2022/01/16 09:27:07;;;;;;;24.12;12.05;;;;;;;13.42;36.46;98869.62;4488663;32;20167;-80
2022/01/16 09:29:34;;;;;;;23.17;12.32;;;;;;;13.97;35.60;98866.44;4488279;32;20088;-80
2022/01/16 09:32:01;;;;;;;24.98;11.88;;;;;;;13.41;37.35;98854.16;4488713;32;20116;-80
2022/01/16 09:34:28;;;;;;;25.55;12.10;;;;;;;14.17;35.69;98854.28;4474385;32;20084;-80
2022/01/16 09:36:55;;;;;;;25.37;11.18;;;;;;;14.77;34.90;98846.38;4488414;32;20080;-80
2022/01/16 09:39:22;;;;;;;25.85;10.68;;;;;;;13.93;36.05;98834.63;4488706;32;20146;-79
2022/01/16 09:41:49;;;;;;;21.23;11.02;;;;;;;14.43;35.72;98850.50;4488766;32;20451;-79
2022/01/16 09:44:17;;;;;;;20.83;9.93;;;;;;;14.90;35.38;98836.28;4474598;32;20102;-80
2022/01/16 09:46:44;;;;;;;19.92;9.68;;;;;;;14.30;35.58;98830.38;4475095;32;20388;-80
2022/01/16 09:49:11;;;;;;;16.83;7.25;;;;;;;15.20;34.45;98826.97;4489214;32;20168;-80
2022/01/16 09:51:38;;;;;;;15.55;7.20;;;;;;;14.53;36.05;98834.53;4488841;32;20165;-80
2022/01/16 09:54:05;;;;;;;26.98;11.50;;;;;;;14.85;34.70;98820.88;4489201;32;20120;-80
2022/01/16 09:56:32;;;;;;;21.33;8.95;;;;;;;13.47;37.48;98810.66;4489156;32;20127;-80
2022/01/16 09:59:05;;;;;;;26.37;9.60;;;;;;;14.29;36.52;98813.13;4488523;32;20096;-79
2022/01/16 10:01:31;;;;;;;20.10;7.53;;;;;;;13.91;36.43;98815.66;4474769;32;20257;-79
2022/01/16 10:03:58;;;;;;;23.27;10.75;;;;;;;14.09;35.91;98814.00;4488768;32;20103;-79
2022/01/16 10:06:26;;;;;;;22.35;9.50;;;;;;;12.87;39.78;98801.88;4488325;32;20171;-80
2022/01/16 10:08:56;;;;;;;22.45;9.25;;;;;;;13.64;37.97;98807.34;4488484;32;20199;-79
2022/01/16 10:11:33;;;;;;;21.62;9.82;;;;;;;14.31;37.24;98813.88;4474382;32;20104;-80
2022/01/16 10:14:13;;;;;;;20.97;9.80;;;;;;;14.21;37.73;98804.84;4474360;32;20102;-79
2022/01/16 10:16:41;;;;;;;21.73;10.27;;;;;;;15.16;36.44;98803.81;4488660;32;20379;-79
2022/01/16 10:19:35;;;;;;;19.08;10.10;;;;;;;16.90;32.65;98805.06;4488581;32;20138;-80
2022/01/16 10:22:13;;;;;;;22.98;10.48;;;;;;;17.68;30.65;98795.31;4485691;32;20171;-79
2022/01/16 10:24:41;;;;;;;25.98;11.57;;;;;;;15.21;34.36;98796.66;4475087;32;20179;-79
2022/01/16 10:27:08;;;;;;;23.58;11.35;;;;;;;15.46;34.09;98791.03;4474704;32;20124;-80
2022/01/16 10:29:39;;;;;;;23.60;11.02;;;;;;;14.48;35.98;98790.63;4488424;32;20131;-80
2022/01/16 10:32:25;;;;;;;21.67;10.60;;;;;;;16.28;32.67;98785.91;4474405;32;20122;-80
2022/01/16 10:35:22;;;;;;;24.77;11.63;;;;;;;16.98;31.74;98780.22;4474033;32;20106;-80
2022/01/16 10:37:54;;;;;;;21.27;10.13;;;;;;;15.48;34.16;98766.63;4474444;32;20088;-79
2022/01/16 10:40:24;;;;;;;19.35;9.07;;;;;;;18.08;29.95;98778.12;4487978;32;20116;-80
2022/01/16 10:42:53;;;;;;;19.05;8.68;;;;;;;17.63;29.97;98772.09;4474205;32;20257;-80
2022/01/16 10:45:25;;;;;;;23.50;11.85;;;;;;;16.92;31.12;98764.97;4488335;32;20174;-80
2022/01/16 10:47:55;;;;;;;21.87;11.57;;;;;;;14.27;35.63;98765.63;4488035;32;20077;-80
2022/01/16 10:50:28;;;;;;;25.73;11.60;;;;;;;14.22;37.09;98768.41;4474498;32;20083;-80
2022/01/16 10:52:59;;;;;;;21.40;10.30;;;;;;;12.77;39.65;98761.72;4475581;32;20105;-79
2022/01/16 10:55:39;;;;;;;20.67;9.13;;;;;;;12.32;40.86;98754.84;4489064;32;20123;-79
2022/01/16 10:58:13;;;;;;;19.20;10.32;;;;;;;13.37;38.37;98748.88;4474509;32;20170;-79
2022/01/16 11:00:54;;;;;;;18.02;8.30;;;;;;;15.00;35.89;98733.56;4488377;32;20110;-79
2022/01/16 11:03:23;;;;;;;18.98;8.55;;;;;;;15.66;33.03;98744.06;4474809;32;20116;-79
2022/01/16 11:05:51;;;;;;;18.20;7.37;;;;;;;15.75;33.48;98733.19;4474550;32;20514;-79
2022/01/16 11:08:23;;;;;;;15.35;6.03;;;;;;;16.31;30.89;98738.84;4474147;32;20135;-80
2022/01/16 11:10:54;;;;;;;16.20;7.03;;;;;;;13.25;35.65;98742.47;4474575;32;20123;-79
2022/01/16 11:13:30;;;;;;;18.08;6.60;;;;;;;14.26;34.51;98735.41;4474886;32;20161;-80
2022/01/16 11:15:59;;;;;;;14.07;5.82;;;;;;;13.94;34.99;98727.34;4474169;32;20056;-80
2022/01/16 11:18:26;;;;;;;17.70;6.70;;;;;;;14.70;33.37;98718.56;4488104;32;20127;-79
2022/01/16 11:23:33;;;;;;;13.18;5.93;;;;;;;15.05;33.06;98719.41;4474682;32;20543;-79
2022/01/16 11:26:03;;;;;;;12.65;4.97;;;;;;;14.22;35.03;98716.50;4488268;32;20100;-79
2022/01/16 11:28:31;;;;;;;14.45;5.40;;;;;;;13.97;34.93;98715.97;4473172;32;20392;-80
2022/01/16 11:31:05;;;;;;;13.65;5.03;;;;;;;14.23;34.15;98714.75;4488072;32;20100;-80
2022/01/16 11:33:34;;;;;;;12.65;5.18;;;;;;;14.10;34.71;98704.94;4487722;32;20161;-79
2022/01/16 11:36:23;;;;;;;11.32;4.68;;;;;;;13.76;35.56;98699.63;4473622;32;20230;-79
2022/01/16 11:38:54;;;;;;;13.88;5.10;;;;;;;13.50;35.18;98698.19;4487804;32;20110;-79
2022/01/16 11:41:26;;;;;;;12.18;4.45;;;;;;;12.82;36.40;98689.84;4487916;32;20104;-79
2022/01/16 11:43:55;;;;;;;12.15;4.87;;;;;;;13.97;35.25;98687.44;4487670;32;20148;-79
2022/01/16 11:46:23;;;;;;;9.65;4.10;;;;;;;13.65;35.48;98686.31;4473859;32;20163;-79
2022/01/16 11:49:00;;;;;;;13.05;4.55;;;;;;;12.88;36.09;98684.44;4487480;32;20147;-79
2022/01/16 11:51:34;;;;;;;12.65;4.07;;;;;;;13.29;36.23;98684.41;4487409;32;20488;-79
2022/01/16 11:54:01;;;;;;;13.05;4.53;;;;;;;13.25;36.52;98688.91;4487541;32;20171;-79
2022/01/16 11:56:40;;;;;;;;;;;;;;;13.23;36.24;98689.87;4487615;32;20602;-80
2022/01/16 11:59:10;;;;;;;11.07;4.25;;;;;;;12.52;37.45;98684.19;4487495;32;20417;-79
2022/01/16 12:01:49;;;;;;;11.00;4.65;;;;;;;12.53;37.76;98685.84;4487785;32;20107;-79
2022/01/16 12:04:28;;;;;;;14.50;5.03;;;;;;;13.26;36.53;98687.16;4487756;32;20065;-80
2022/01/16 12:07:13;;;;;;;15.57;4.60;;;;;;;13.24;36.06;98678.59;4488128;32;20738;-79
2022/01/16 12:09:48;;;;;;;11.48;4.85;;;;;;;12.97;36.69;98675.41;4487663;32;20114;-79
2022/01/16 12:12:14;;;;;;;15.82;5.35;;;;;;;12.77;37.45;98678.03;4487694;32;20101;-79
2022/01/16 12:15:00;;;;;;;;;;;;;;;12.95;36.93;98670.28;4487897;32;20099;-79
2022/01/16 12:17:41;;;;;;;14.05;5.15;;;;;;;12.86;37.23;98669.84;4487676;32;20024;-79